Portsmouth, NH

1:07 AM EST on January 27, 2015 (GMT -0500)
KPV | Change Station
CLOSE
Current Station
Personal Weather Station
Location: Kittery Point, ME
Elevation: 40 ft
Nearby Weather Stations

Elev 40 ft 43.08 °N, 70.71 °W | Updated 47 seconds ago

Light Snow
Light Snow
15.0 °F
Feels Like 2 °F
N
11.4
Wind Variable Wind from ENE
Gusts 15.8 mph

Today
High -- | Low -- °F
--% Chance of Precip.
Yesterday
High -- | Low -- °F
Precip. -- in
7:03 AM 4:48 PM
Waxing Crescent, 51% visible
Pressure 29.88 in
Visibility 1.5 miles
Clouds Overcast 1800 ft
Windchill 2 °F
Dew Point 12 °F
Humidity 86%
Rainfall -999.00 in
Snow Depth Not available.
UV 0 out of 12
Pollen .10 out of 12
Air Quality Not available.
Flu Activity Not available.
SPECI KPSM 270538Z 02015G21KT 1 1/2SM -SN OVC018 M10/M15 A2988 RMK AO2A

More Conditions Fewer Conditions

Pressure 29.88 in
Visibility 1.5 miles
Clouds Overcast 1800 ft
Windchill 2 °F
Dew Point 12 °F
Humidity 86%
Rainfall -999.00 in
Snow Depth Not available.
UV 0 out of 12
Pollen .10 out of 12
Air Quality Not available.
Flu Activity Not available.
SPECI KPSM 270538Z 02015G21KT 1 1/2SM -SN OVC018 M10/M15 A2988 RMK AO2A

More Conditions Fewer Conditions

10-Day Weather Forecast

Almanac

Astronomy

Jan. 27, 2015 Rise Set
Actual Time
Civil Twilight
Nautical Twilight
Astronomical Twilight
Moon
Length of Visible Light
Length of Day
Tomorrow will be .
, % of the Moon is Illuminated

Today's Extremes

State Highs State Lows

Community

WunderPhotos

Upload Photos

1,790,542 photos uploaded!

WunderBlogs® & News

Nearby

Air Quality

  Air Quality AQ Index Pollutant
Not available.

Snow Depth

Station Depth Elevation

Earthquake Activity

City Distance Mag. Time & Date
Minimum magnitude displayed is 2.5.

Coastal Water Temperatures

Place Temperature

Nearby Weather Stations